Time;durP1;ratioP1;P1;durP2;ratioP2;P2;SDS_P1;SDS_P2;PMS_P1;PMS_P2;Temp;Humidity;BMP_temperature;BMP_pressure;BME280_temperature;BME280_humidity;BME280_pressure;Samples;Min_cycle;Max_cycle;Signal;HPM_P1;HPM_P2
2021/05/26 00:00:07;;;;;;;16.60;5.65;;;;;;;7.69;90.64;101436.72;4974903;28;20066;-71
2021/05/26 00:02:35;;;;;;;11.52;5.50;;;;;;;7.74;89.58;101428.69;4976793;28;20062;-71
2021/05/26 00:05:05;;;;;;;14.02;5.30;;;;;;;7.78;90.17;101433.06;4973034;28;20066;-71
2021/05/26 00:07:33;;;;;;;13.27;5.55;;;;;;;7.84;91.49;101431.22;4973173;28;20062;-71
2021/05/26 00:10:00;;;;;;;10.93;5.30;;;;;;;7.89;91.06;101427.66;4974605;28;20069;-72
2021/05/26 00:12:27;;;;;;;17.08;5.55;;;;;;;7.91;90.58;101431.16;4974940;28;20066;-72
2021/05/26 00:14:55;;;;;;;12.00;5.57;;;;;;;7.90;91.05;101421.44;4977059;28;20058;-72
2021/05/26 00:17:22;;;;;;;14.07;6.18;;;;;;;7.95;91.42;101428.47;4971189;28;20104;-71
2021/05/26 00:19:49;;;;;;;12.25;6.97;;;;;;;7.99;91.60;101426.66;4974555;28;20071;-71
2021/05/26 00:22:17;;;;;;;12.02;6.35;;;;;;;8.01;91.25;101424.84;4976465;28;20469;-72
2021/05/26 00:24:44;;;;;;;18.48;8.18;;;;;;;8.14;92.10;101420.25;4976366;28;20121;-72
2021/05/26 00:27:12;;;;;;;24.70;9.65;;;;;;;8.18;92.28;101421.97;4974202;28;20066;-72
2021/05/26 00:29:39;;;;;;;16.20;8.90;;;;;;;8.29;92.32;101435.13;4974171;28;20058;-72
2021/05/26 00:32:07;;;;;;;24.15;8.55;;;;;;;8.30;92.55;101421.81;4975048;28;20062;-72
2021/05/26 00:34:34;;;;;;;16.83;8.13;;;;;;;8.26;91.50;101417.44;4974385;28;20058;-71
2021/05/26 00:37:01;;;;;;;14.75;6.68;;;;;;;8.30;91.90;101412.97;4972528;28;20066;-72
2021/05/26 00:39:29;;;;;;;16.85;7.13;;;;;;;8.30;91.53;101408.53;4974926;28;20078;-72
2021/05/26 00:41:56;;;;;;;12.82;6.63;;;;;;;8.32;91.82;101404.06;4973355;28;20069;-72
2021/05/26 00:44:24;;;;;;;23.80;8.65;;;;;;;8.36;92.48;101400.47;4974759;28;20062;-72
2021/05/26 00:46:51;;;;;;;19.38;7.88;;;;;;;8.39;93.42;101396.88;4971624;28;20069;-72
2021/05/26 00:49:18;;;;;;;15.95;7.75;;;;;;;8.39;93.21;101402.19;4972352;28;20089;-72
2021/05/26 00:51:46;;;;;;;21.35;8.35;;;;;;;8.48;93.53;101412.75;4975293;28;20074;-70
2021/05/26 00:54:13;;;;;;;14.88;5.95;;;;;;;8.79;94.14;101409.63;4975225;28;20058;-70
2021/05/26 00:56:41;;;;;;;19.40;7.00;;;;;;;8.97;94.06;101416.44;4975874;28;20402;-69
2021/05/26 00:59:08;;;;;;;22.92;6.57;;;;;;;9.03;94.21;101434.09;4975734;28;20113;-68
2021/05/26 01:01:36;;;;;;;22.30;6.13;;;;;;;8.92;94.25;101440.47;4970623;28;20073;-69
2021/05/26 01:04:04;;;;;;;12.30;4.18;;;;;;;8.65;91.10;101431.13;4975586;28;20054;-69
2021/05/26 01:06:31;;;;;;;7.30;3.55;;;;;;;8.48;88.32;101434.03;4971874;28;20070;-69
2021/05/26 01:08:58;;;;;;;10.55;3.22;;;;;;;8.43;87.50;101422.56;4971894;28;20062;-69
2021/05/26 01:11:25;;;;;;;7.97;3.30;;;;;;;8.41;87.61;101426.97;4974601;28;20464;-70
2021/05/26 01:13:54;;;;;;;9.85;3.80;;;;;;;8.35;88.38;101412.00;4973166;28;20353;-69
2021/05/26 01:16:21;;;;;;;13.85;4.80;;;;;;;8.36;89.29;101403.13;4972811;28;20065;-69
2021/05/26 01:18:48;;;;;;;9.63;4.05;;;;;;;8.38;88.39;101414.63;4973743;28;20455;-69
2021/05/26 01:21:16;;;;;;;9.88;5.10;;;;;;;8.45;88.48;101409.25;4978871;28;20153;-69
2021/05/26 01:23:45;;;;;;;8.15;4.35;;;;;;;8.49;88.88;101398.53;4973406;28;20070;-70
2021/05/26 01:26:13;;;;;;;8.85;3.67;;;;;;;8.45;86.30;101401.28;4974603;28;20062;-69
2021/05/26 01:28:40;;;;;;;10.70;3.80;;;;;;;8.45;87.00;101398.63;4973235;28;20066;-70
2021/05/26 01:31:07;;;;;;;9.50;4.20;;;;;;;8.51;88.18;101395.84;4978689;28;20080;-70
2021/05/26 01:33:35;;;;;;;12.20;5.10;;;;;;;8.59;89.74;101396.63;4969118;28;20086;-70
2021/05/26 01:36:03;;;;;;;16.90;5.30;;;;;;;8.67;91.00;101392.06;4980047;28;20050;-71
2021/05/26 01:38:30;;;;;;;18.30;5.45;;;;;;;8.68;91.25;101390.28;4970797;28;20082;-71
2021/05/26 01:41:00;;;;;;;13.25;5.50;;;;;;;8.68;89.26;101392.94;4977712;28;20069;-71
2021/05/26 01:43:29;;;;;;;10.95;4.97;;;;;;;8.65;89.51;101391.22;4969186;28;20059;-71
2021/05/26 01:45:56;;;;;;;13.65;5.05;;;;;;;8.66;89.66;101384.09;4976041;28;20061;-71
2021/05/26 01:48:24;;;;;;;13.15;5.35;;;;;;;8.69;89.15;101389.38;4970724;28;20462;-71
2021/05/26 01:50:51;;;;;;;9.88;4.90;;;;;;;8.63;88.91;101379.69;4978862;28;20161;-71
2021/05/26 01:53:19;;;;;;;10.05;6.05;;;;;;;8.60;88.20;101372.66;4969519;28;20059;-71
2021/05/26 01:55:46;;;;;;;10.43;4.68;;;;;;;8.51;87.80;101377.22;4978380;28;20058;-71
2021/05/26 01:58:15;;;;;;;9.00;4.22;;;;;;;8.50;88.19;101372.84;4972833;28;20468;-71
2021/05/26 02:00:44;;;;;;;8.50;5.13;;;;;;;8.44;88.87;101373.78;4973054;28;20558;-73
2021/05/26 02:03:12;;;;;;;9.93;5.03;;;;;;;8.40;89.25;101375.56;4969315;28;20055;-72
2021/05/26 02:05:39;;;;;;;14.38;6.22;;;;;;;8.41;89.03;101376.44;4974753;28;20441;-72
2021/05/26 02:08:07;;;;;;;13.95;6.25;;;;;;;8.46;89.63;101377.28;4972203;28;20066;-72
2021/05/26 02:13:21;;;;;;;16.20;5.95;;;;;;;8.43;89.89;101372.03;4977275;28;20161;-73
2021/05/26 02:15:49;;;;;;;12.50;6.85;;;;;;;8.41;90.32;101371.13;4973308;28;20611;-72
2021/05/26 02:18:16;;;;;;;15.45;6.95;;;;;;;8.39;90.44;101372.94;4972127;28;20102;-73
2021/05/26 02:20:43;;;;;;;16.88;7.03;;;;;;;8.37;90.63;101359.66;4973806;28;20969;-71
2021/05/26 02:23:13;;;;;;;16.20;7.18;;;;;;;8.36;91.08;101363.25;4974708;28;20071;-72
2021/05/26 02:25:41;;;;;;;12.93;7.18;;;;;;;8.35;91.36;101350.84;4969644;28;20074;-72
2021/05/26 02:28:08;;;;;;;14.65;7.50;;;;;;;8.33;91.74;101363.28;4973241;28;20101;-71
2021/05/26 02:30:36;;;;;;;17.27;7.18;;;;;;;8.31;91.38;101361.53;4970170;28;20070;-72
2021/05/26 02:33:04;;;;;;;13.32;7.07;;;;;;;8.33;91.59;101355.31;4973510;28;20066;-72
2021/05/26 02:35:31;;;;;;;14.65;8.18;;;;;;;8.38;91.97;101355.25;4974102;28;20061;-72
2021/05/26 02:37:59;;;;;;;15.35;7.55;;;;;;;8.38;91.91;101364.09;4974707;28;20058;-72
2021/05/26 02:40:26;;;;;;;15.70;6.88;;;;;;;8.42;92.24;101356.94;4976596;28;20189;-72
2021/05/26 02:42:53;;;;;;;19.52;8.32;;;;;;;8.41;92.55;101357.84;4975298;28;20054;-72
2021/05/26 02:45:20;;;;;;;14.63;6.53;;;;;;;8.43;92.44;101356.09;4973674;28;20472;-72
2021/05/26 02:47:49;;;;;;;15.57;7.35;;;;;;;8.49;92.83;101355.09;4973123;28;20077;-72
2021/05/26 02:50:17;;;;;;;14.30;6.22;;;;;;;8.53;93.15;101344.41;4975345;28;20066;-71
2021/05/26 02:52:45;;;;;;;12.52;5.63;;;;;;;8.57;93.27;101347.91;4978302;28;20062;-71
2021/05/26 02:55:13;;;;;;;16.98;4.70;;;;;;;8.60;93.01;101339.88;4972725;28;20054;-71
2021/05/26 02:57:41;;;;;;;12.52;4.72;;;;;;;8.60;93.50;101346.06;4975166;28;20074;-71
2021/05/26 03:00:11;;;;;;;14.10;4.97;;;;;;;8.59;93.63;101344.28;4971221;28;20062;-72
2021/05/26 03:02:39;;;;;;;16.42;5.57;;;;;;;8.65;93.29;101339.78;4974024;28;20073;-72
2021/05/26 03:05:09;;;;;;;13.80;4.97;;;;;;;8.67;92.82;101328.22;4974213;28;20066;-72
2021/05/26 03:07:37;;;;;;;10.25;4.57;;;;;;;8.69;92.84;101333.50;4978062;28;20072;-71
2021/05/26 03:10:06;;;;;;;13.85;5.47;;;;;;;8.70;92.65;101332.59;4972875;28;20062;-71
2021/05/26 03:12:33;;;;;;;16.15;5.30;;;;;;;8.72;92.86;101329.03;4974278;28;20066;-71
2021/05/26 03:15:01;;;;;;;13.73;5.00;;;;;;;8.71;92.90;101329.91;4974306;28;20223;-71
2021/05/26 03:17:28;;;;;;;15.20;5.30;;;;;;;8.74;92.96;101327.22;4974968;28;20062;-72
2021/05/26 03:19:56;;;;;;;13.35;5.97;;;;;;;8.76;92.67;101328.06;4975616;28;20071;-71
2021/05/26 03:22:24;;;;;;;16.42;4.88;;;;;;;8.74;92.68;101329.88;4973196;28;20058;-71
2021/05/26 03:24:52;;;;;;;20.67;7.22;;;;;;;8.77;92.61;101331.63;4976771;28;20319;-71
2021/05/26 03:27:21;;;;;;;17.38;6.15;;;;;;;8.78;92.55;101331.59;4971393;28;20089;-70
2021/05/26 03:29:48;;;;;;;13.13;5.05;;;;;;;8.75;92.79;101333.41;4976490;28;20058;-70
2021/05/26 03:32:16;;;;;;;23.77;6.75;;;;;;;8.76;93.06;101324.53;4972785;28;20536;-71
2021/05/26 03:34:44;;;;;;;15.52;5.68;;;;;;;8.85;91.90;101319.03;4977448;28;20145;-70
2021/05/26 03:37:13;;;;;;;17.50;5.60;;;;;;;8.83;91.86;101315.53;4969836;28;20065;-71
2021/05/26 03:39:41;;;;;;;17.83;7.38;;;;;;;8.81;92.23;101327.13;4975764;28;20058;-71
2021/05/26 03:42:08;;;;;;;21.10;6.78;;;;;;;8.78;92.38;101315.63;4970582;28;20069;-71
2021/05/26 03:44:36;;;;;;;22.60;5.93;;;;;;;8.79;92.37;101321.81;4976833;28;20062;-70
2021/05/26 03:47:03;;;;;;;20.45;6.15;;;;;;;8.76;92.45;101320.06;4972574;28;20075;-70
2021/05/26 03:49:30;;;;;;;17.77;6.95;;;;;;;8.75;92.66;101320.09;4978107;28;20058;-70
2021/05/26 03:51:58;;;;;;;20.48;6.57;;;;;;;8.71;92.42;101324.59;4974992;28;20469;-70
2021/05/26 03:54:25;;;;;;;25.48;7.63;;;;;;;8.70;92.44;101321.94;4976358;28;20058;-71
2021/05/26 03:56:53;;;;;;;21.90;7.47;;;;;;;8.69;91.99;101315.75;4974475;28;20062;-71
2021/05/26 03:59:20;;;;;;;19.73;8.05;;;;;;;8.62;91.98;101324.75;4971618;28;20299;-70
2021/05/26 04:01:49;;;;;;;19.85;8.48;;;;;;;8.62;92.12;101315.91;4975323;28;20065;-70
2021/05/26 04:04:16;;;;;;;22.65;8.60;;;;;;;8.61;92.04;101325.66;4973421;28;20112;-70
2021/05/26 04:06:43;;;;;;;17.58;7.20;;;;;;;8.55;92.51;101323.97;4975129;28;20062;-70
2021/05/26 04:09:10;;;;;;;22.50;7.10;;;;;;;8.55;92.21;101325.75;4970033;28;20157;-69
2021/05/26 04:11:38;;;;;;;16.95;7.80;;;;;;;8.51;92.27;101322.28;4975924;28;20066;-68
2021/05/26 04:14:07;;;;;;;19.65;7.88;;;;;;;8.55;92.50;101329.28;4971712;28;20772;-69
2021/05/26 04:16:34;;;;;;;18.65;7.45;;;;;;;8.56;92.21;101325.75;4976132;28;20062;-69
2021/05/26 04:19:03;;;;;;;18.50;8.50;;;;;;;8.55;92.20;101313.34;4971378;28;20064;-69
2021/05/26 04:21:32;;;;;;;16.92;7.50;;;;;;;8.58;91.98;101317.72;4978902;28;20054;-70
2021/05/26 04:23:59;;;;;;;21.85;7.82;;;;;;;8.61;91.85;101320.31;4972883;28;20073;-69
2021/05/26 04:26:26;;;;;;;26.90;10.00;;;;;;;8.65;91.74;101321.16;4974105;28;20070;-70
2021/05/26 04:28:53;;;;;;;22.58;8.43;;;;;;;8.67;91.98;101319.38;4971710;28;20354;-70
2021/05/26 04:31:23;;;;;;;20.58;8.27;;;;;;;8.64;91.13;101314.97;4977102;28;20063;-69
2021/05/26 04:33:50;;;;;;;21.08;8.75;;;;;;;8.65;91.30;101321.16;4969145;28;20496;-69
2021/05/26 04:36:17;;;;;;;22.75;8.60;;;;;;;8.62;91.07;101321.22;4973642;28;20058;-69
2021/05/26 04:38:44;;;;;;;22.15;9.13;;;;;;;8.60;91.37;101321.25;4970617;28;20062;-69
2021/05/26 04:41:12;;;;;;;29.45;10.48;;;;;;;8.66;91.91;101322.91;4973711;28;20058;-69
2021/05/26 04:43:40;;;;;;;25.83;9.18;;;;;;;8.65;91.68;101327.38;4970564;28;20058;-69
2021/05/26 04:46:07;;;;;;;26.10;10.45;;;;;;;8.69;91.55;101328.19;4971997;28;20580;-68
2021/05/26 04:48:35;;;;;;;25.20;9.43;;;;;;;8.72;91.71;101329.03;4971176;28;20054;-68
2021/05/26 04:51:03;;;;;;;26.52;10.20;;;;;;;8.72;91.37;101328.16;4973745;28;20094;-70
2021/05/26 04:53:30;;;;;;;26.08;9.65;;;;;;;8.77;91.44;101323.63;4970590;28;20093;-71
2021/05/26 04:55:57;;;;;;;28.13;10.68;;;;;;;8.84;91.71;101322.63;4975543;28;20062;-69
2021/05/26 04:58:25;;;;;;;24.02;10.18;;;;;;;8.98;90.96;101319.72;4969453;28;20137;-69
2021/05/26 05:00:52;;;;;;;25.63;9.90;;;;;;;9.06;90.86;101314.22;4974464;28;20152;-69
2021/05/26 05:03:19;;;;;;;25.38;10.15;;;;;;;9.19;90.62;101307.78;4971137;28;20065;-70
2021/05/26 05:05:47;;;;;;;27.08;11.93;;;;;;;9.30;89.72;101311.13;4973653;28;20496;-70
2021/05/26 05:08:15;;;;;;;25.63;10.98;;;;;;;9.37;89.79;101306.56;4970609;28;20066;-72
2021/05/26 05:10:42;;;;;;;28.65;10.57;;;;;;;9.46;89.82;101308.16;4975794;28;20112;-69
2021/05/26 05:13:09;;;;;;;23.67;9.45;;;;;;;9.42;90.37;101312.69;4970057;28;20081;-69
2021/05/26 05:15:36;;;;;;;22.83;10.00;;;;;;;9.35;89.60;101308.38;4971660;28;20347;-70
2021/05/26 05:18:04;;;;;;;25.42;10.45;;;;;;;9.26;89.17;101297.88;4974200;28;20071;-71
2021/05/26 05:20:31;;;;;;;23.30;10.68;;;;;;;9.25;89.85;101309.47;4973053;28;20069;-72
2021/05/26 05:22:59;;;;;;;25.45;11.18;;;;;;;9.14;89.28;101299.91;4971958;28;20071;-72
2021/05/26 05:25:26;;;;;;;26.20;10.80;;;;;;;9.11;90.02;101307.94;4968754;28;20516;-71
2021/05/26 05:27:54;;;;;;;22.13;10.88;;;;;;;9.14;90.06;101304.31;4974348;28;20057;-71
2021/05/26 05:30:22;;;;;;;29.77;11.68;;;;;;;9.06;89.69;101311.56;4967661;28;20058;-73
2021/05/26 05:32:50;;;;;;;30.42;12.57;;;;;;;9.07;89.72;101314.22;4974445;28;20527;-71
2021/05/26 05:35:17;;;;;;;30.98;11.18;;;;;;;9.12;89.74;101306.16;4972261;28;20128;-72
2021/05/26 05:37:45;;;;;;;31.75;12.95;;;;;;;9.06;89.75;101301.81;4971586;28;20055;-72
2021/05/26 05:40:14;;;;;;;26.75;11.50;;;;;;;9.14;90.45;101305.22;4970690;28;20088;-71
2021/05/26 05:42:42;;;;;;;28.05;12.05;;;;;;;9.25;89.70;101305.00;4972999;28;20066;-72
2021/05/26 05:45:10;;;;;;;24.02;11.50;;;;;;;9.34;88.90;101302.16;4969627;28;20069;-71
2021/05/26 05:47:37;;;;;;;29.50;13.05;;;;;;;9.34;88.79;101296.81;4971906;28;20074;-72
2021/05/26 05:50:14;;;;;;;30.52;13.45;;;;;;;9.37;88.55;101303.03;4969066;28;22115;-71
2021/05/26 05:52:43;;;;;;;25.83;12.80;;;;;;;9.45;89.06;101303.72;4968817;28;20094;-71
2021/05/26 05:55:11;;;;;;;28.25;12.13;;;;;;;9.44;88.61;101302.00;4969014;28;20064;-74
2021/05/26 05:57:40;;;;;;;28.27;13.15;;;;;;;9.43;88.82;101301.13;4974056;28;20066;-74
2021/05/26 06:00:10;;;;;;;25.15;11.57;;;;;;;9.48;88.07;101303.66;4970699;28;20062;-70
2021/05/26 06:02:38;;;;;;;28.77;12.38;;;;;;;9.63;88.17;101308.69;4970019;28;20476;-71
2021/05/26 06:05:08;;;;;;;30.38;12.07;;;;;;;9.62;87.86;101304.28;4968818;28;20074;-71
2021/05/26 06:07:35;;;;;;;25.05;12.82;;;;;;;9.69;88.06;101303.25;4972067;28;20434;-73
2021/05/26 06:10:04;;;;;;;26.92;12.60;;;;;;;9.90;87.84;101293.91;4969182;28;20134;-71
2021/05/26 06:12:31;;;;;;;29.35;13.70;;;;;;;10.36;85.97;101300.00;4978439;28;20465;-71
2021/05/26 06:15:00;;;;;;;25.50;12.45;;;;;;;10.23;85.57;101299.41;4976758;28;20149;-69
2021/05/26 06:17:27;;;;;;;27.60;12.25;;;;;;;10.12;86.05;101292.56;4977836;28;20715;-71
2021/05/26 06:19:54;;;;;;;28.55;13.30;;;;;;;10.02;86.40;101297.22;4975857;28;20105;-72
2021/05/26 06:22:22;;;;;;;31.08;13.65;;;;;;;9.99;86.49;101290.13;4978812;28;20125;-70
2021/05/26 06:24:49;;;;;;;26.20;13.43;;;;;;;9.98;86.57;101292.88;4976734;28;20050;-70
2021/05/26 06:27:16;;;;;;;34.05;12.65;;;;;;;10.28;86.21;101289.50;4977883;28;20062;-71
2021/05/26 06:29:43;;;;;;;26.52;12.43;;;;;;;10.41;86.32;101299.91;4976438;28;20341;-71
2021/05/26 06:32:11;;;;;;;26.60;13.80;;;;;;;10.43;84.92;101290.94;4974078;28;22094;-70
2021/05/26 06:34:39;;;;;;;32.58;13.70;;;;;;;11.06;83.97;101287.59;4974235;28;20062;-72
2021/05/26 06:37:06;;;;;;;27.75;13.40;;;;;;;11.34;82.48;101285.00;4973248;28;20138;-72
2021/05/26 06:39:33;;;;;;;28.55;13.30;;;;;;;11.83;81.73;101291.59;4972912;28;20124;-71
2021/05/26 06:42:00;;;;;;;24.65;11.95;;;;;;;12.30;79.17;101293.78;4973828;28;20117;-69
2021/05/26 06:44:28;;;;;;;31.88;13.43;;;;;;;12.47;79.29;101287.88;4973166;28;20477;-70
2021/05/26 06:46:56;;;;;;;28.98;12.60;;;;;;;12.39;78.73;101277.41;4974764;28;20081;-73
2021/05/26 06:49:24;;;;;;;23.98;11.35;;;;;;;11.75;80.30;101286.50;4975513;28;20346;-73
2021/05/26 06:51:54;;;;;;;23.23;11.00;;;;;;;11.57;81.84;101281.69;4980100;28;20065;-73
2021/05/26 06:54:21;;;;;;;26.05;12.35;;;;;;;11.48;80.49;101288.19;4972966;28;20450;-72
2021/05/26 06:56:49;;;;;;;25.92;11.50;;;;;;;11.54;82.29;101284.44;4978012;28;20149;-73
2021/05/26 06:59:16;;;;;;;22.05;10.65;;;;;;;12.11;78.90;101291.69;4976085;28;20083;-73
2021/05/26 07:01:43;;;;;;;27.40;11.88;;;;;;;11.92;79.91;101288.69;4981540;28;20069;-75
2021/05/26 07:04:11;;;;;;;19.70;10.50;;;;;;;12.11;79.01;101288.13;4975560;28;20095;-73
2021/05/26 07:06:39;;;;;;;24.55;10.70;;;;;;;12.10;79.66;101287.22;4978373;28;20065;-72
2021/05/26 07:09:06;;;;;;;24.60;10.85;;;;;;;12.43;79.16;101281.75;4976332;28;20079;-73
2021/05/26 07:11:33;;;;;;;21.88;9.70;;;;;;;12.65;76.53;101283.69;4983720;28;20070;-73
2021/05/26 07:14:01;;;;;;;20.77;8.77;;;;;;;12.27;75.95;101292.06;4971319;28;20471;-72
2021/05/26 07:16:28;;;;;;;18.05;8.45;;;;;;;13.23;75.29;101275.47;4984317;28;20070;-72
2021/05/26 07:18:58;;;;;;;16.88;8.90;;;;;;;13.59;73.24;101273.25;4974065;28;20054;-74
2021/05/26 07:21:26;;;;;;;14.95;7.05;;;;;;;12.83;75.83;101276.84;4981927;28;20062;-73
2021/05/26 07:23:55;;;;;;;15.48;7.53;;;;;;;12.41;75.99;101278.25;4971895;28;20062;-72
2021/05/26 07:26:22;;;;;;;18.25;7.43;;;;;;;12.24;76.61;101281.47;4980080;28;20062;-72
2021/05/26 07:28:50;;;;;;;23.33;7.60;;;;;;;12.07;77.08;101290.03;4977525;28;20054;-71
2021/05/26 07:31:17;;;;;;;17.92;8.38;;;;;;;13.25;75.13;101279.81;4979290;28;20054;-73
2021/05/26 07:33:46;;;;;;;18.13;7.05;;;;;;;13.78;73.15;101265.34;4973704;28;20063;-74
2021/05/26 07:36:13;;;;;;;13.43;6.28;;;;;;;13.02;73.53;101274.41;4979254;28;20062;-75
2021/05/26 07:38:41;;;;;;;14.30;6.07;;;;;;;12.63;73.56;101281.09;4976389;28;20061;-73
2021/05/26 07:41:09;;;;;;;13.38;5.90;;;;;;;12.50;73.35;101280.63;4975806;28;20062;-73
2021/05/26 07:43:36;;;;;;;11.00;5.15;;;;;;;12.50;73.67;101282.44;4975319;28;20546;-73
2021/05/26 07:46:05;;;;;;;13.73;5.18;;;;;;;12.23;73.87;101286.88;4973347;28;20073;-73
2021/05/26 07:48:32;;;;;;;12.05;4.93;;;;;;;12.32;74.40;101287.44;4976964;28;20437;-72
2021/05/26 07:51:01;;;;;;;10.93;5.05;;;;;;;12.17;74.49;101287.06;4974373;28;20353;-73
2021/05/26 07:53:29;;;;;;;11.25;4.70;;;;;;;11.91;73.20;101280.72;4976978;28;20066;-73
2021/05/26 07:55:56;;;;;;;10.00;4.22;;;;;;;11.77;72.76;101286.47;4974292;28;20073;-73
2021/05/26 07:58:24;;;;;;;10.45;4.20;;;;;;;11.60;72.74;101284.28;4977933;28;20054;-73
2021/05/26 08:00:52;;;;;;;11.18;5.22;;;;;;;11.42;73.89;101293.69;4972193;28;20457;-73
2021/05/26 08:03:20;;;;;;;10.50;5.38;;;;;;;11.51;74.02;101293.44;4977274;28;20070;-73
2021/05/26 08:05:47;;;;;;;9.10;4.30;;;;;;;11.48;73.42;101292.66;4974352;28;20094;-72
2021/05/26 08:08:15;;;;;;;9.15;4.22;;;;;;;11.55;73.66;101287.06;4974913;28;20410;-72
2021/05/26 08:10:42;;;;;;;11.63;4.90;;;;;;;11.37;73.64;101295.63;4976250;28;20063;-73
2021/05/26 08:13:09;;;;;;;9.98;4.47;;;;;;;11.38;73.30;101297.38;4976602;28;20062;-73
2021/05/26 08:15:37;;;;;;;9.05;3.90;;;;;;;11.24;73.16;101296.88;4978706;28;20067;-72
2021/05/26 08:18:10;;;;;;;8.15;4.20;;;;;;;11.10;74.34;101294.59;4974094;28;20066;-74
2021/05/26 08:20:38;;;;;;;11.63;4.45;;;;;;;11.51;75.07;101295.22;4975627;28;20058;-71
2021/05/26 08:23:05;;;;;;;8.98;4.70;;;;;;;11.55;73.78;101294.22;4975497;28;20507;-71
2021/05/26 08:25:32;;;;;;;11.32;4.63;;;;;;;12.45;71.60;101290.59;4973145;28;20494;-73
2021/05/26 08:28:00;;;;;;;10.35;4.93;;;;;;;13.48;68.10;101280.78;4976865;28;20081;-75
2021/05/26 08:30:27;;;;;;;8.63;4.35;;;;;;;13.54;65.55;101285.06;4976998;28;20161;-73
2021/05/26 08:32:56;;;;;;;10.05;5.25;;;;;;;14.22;65.43;101277.97;4976195;28;20153;-72
2021/05/26 08:35:24;;;;;;;9.68;4.60;;;;;;;14.18;63.38;101274.53;4974956;28;20062;-73
2021/05/26 08:37:51;;;;;;;11.02;4.65;;;;;;;14.59;62.95;101270.22;4976053;28;20054;-74
2021/05/26 08:40:19;;;;;;;20.50;6.72;;;;;;;13.96;65.38;101278.97;4973681;28;20070;-73
2021/05/26 08:42:47;;;;;;;11.63;4.43;;;;;;;13.68;66.32;101279.19;4975836;28;20066;-73
2021/05/26 08:45:15;;;;;;;8.88;4.20;;;;;;;13.06;66.56;101278.75;4973534;28;20088;-74
2021/05/26 08:47:45;;;;;;;7.47;4.43;;;;;;;14.47;63.55;101269.78;4977724;28;20070;-72
2021/05/26 08:50:15;;;;;;;12.30;4.72;;;;;;;15.09;61.00;101261.81;4971422;28;20158;-73
2021/05/26 08:52:43;;;;;;;12.07;4.03;;;;;;;15.57;59.26;101262.34;4979513;28;20125;-73
2021/05/26 08:55:11;;;;;;;12.10;4.38;;;;;;;15.20;59.48;101267.56;4971427;28;20054;-72
2021/05/26 08:57:39;;;;;;;8.98;4.50;;;;;;;13.90;60.29;101265.81;4980241;28;20069;-72
2021/05/26 09:00:08;;;;;;;9.52;4.20;;;;;;;14.87;62.96;101275.31;4971584;28;20062;-73
2021/05/26 09:02:35;;;;;;;9.32;4.75;;;;;;;14.97;60.46;101265.91;4981526;28;20089;-73
2021/05/26 09:05:04;;;;;;;12.82;4.88;;;;;;;14.15;59.49;101268.41;4972903;28;20067;-74
2021/05/26 09:07:33;;;;;;;11.00;4.10;;;;;;;14.94;59.43;101263.34;4976621;28;20063;-71
2021/05/26 09:10:04;;;;;;;10.05;4.18;;;;;;;15.72;59.19;101260.78;4973871;28;20375;-74
2021/05/26 09:12:33;;;;;;;8.98;3.58;;;;;;;13.85;60.94;101257.09;4981752;28;20474;-71
2021/05/26 09:15:05;;;;;;;8.70;3.67;;;;;;;13.95;61.25;101253.97;4971709;28;20058;-71
2021/05/26 09:17:32;;;;;;;8.32;4.03;;;;;;;13.75;62.08;101264.59;4978275;28;20469;-73
2021/05/26 09:20:31;;;;;;;11.48;4.13;;;;;;;13.62;62.82;101262.41;4972428;28;20062;-72
2021/05/26 09:23:12;;;;;;;11.50;4.07;;;;;;;13.51;62.63;101258.38;4974820;28;20066;-72
2021/05/26 09:25:52;;;;;;;9.13;4.03;;;;;;;13.68;65.00;101257.75;4973515;28;20062;-72
2021/05/26 09:28:25;;;;;;;7.30;4.43;;;;;;;13.66;65.05;101264.97;4976986;28;20129;-73
2021/05/26 09:30:55;;;;;;;12.27;4.28;;;;;;;13.75;66.18;101261.94;4973703;28;20141;-73
2021/05/26 09:33:33;;;;;;;10.15;4.40;;;;;;;13.21;66.88;101271.94;4976439;28;20058;-72
2021/05/26 09:36:15;;;;;;;9.00;4.63;;;;;;;12.52;69.86;101269.84;4978237;28;20054;-73
2021/05/26 09:38:46;;;;;;;10.05;5.00;;;;;;;12.30;72.32;101285.75;4975624;28;20062;-73
2021/05/26 09:41:16;;;;;;;13.55;5.18;;;;;;;12.66;72.96;101286.31;4976762;28;20066;-73
2021/05/26 09:43:46;;;;;;;14.65;5.82;;;;;;;12.55;71.76;101283.16;4971755;28;20058;-72
2021/05/26 09:46:31;;;;;;;11.25;5.25;;;;;;;12.81;71.25;101281.38;4999618;28;20145;-72
2021/05/26 09:49:16;;;;;;;11.05;5.10;;;;;;;12.94;69.26;101281.81;4971574;28;20054;-73
2021/05/26 09:51:46;;;;;;;11.10;4.50;;;;;;;12.27;69.21;101289.38;4972081;28;20495;-73
2021/05/26 09:54:20;;;;;;;9.07;5.00;;;;;;;12.25;70.79;101283.22;4969885;28;20070;-73
2021/05/26 09:56:49;;;;;;;;;;;;;;;12.83;70.10;101288.44;4974100;28;20415;-74
2021/05/26 09:59:16;;;;;;;10.98;5.10;;;;;;;13.00;70.64;101278.94;4972114;28;20020;-72
2021/05/26 10:01:44;;;;;;;10.25;5.03;;;;;;;13.12;68.15;101293.72;4967401;28;20070;-73
2021/05/26 10:04:11;;;;;;;11.40;5.60;;;;;;;12.65;68.90;101297.06;4972808;28;20066;-73
2021/05/26 10:06:39;;;;;;;10.80;5.07;;;;;;;12.62;68.76;101290.03;4976059;28;20333;-73
2021/05/26 10:09:11;;;;;;;8.85;5.50;;;;;;;12.66;68.15;101290.81;4973044;28;20058;-73
2021/05/26 10:11:40;;;;;;;10.60;5.80;;;;;;;13.60;67.91;101293.78;4977587;28;20062;-73
2021/05/26 10:14:09;;;;;;;8.88;6.00;;;;;;;14.57;64.86;101279.22;4973766;28;20069;-73
2021/05/26 10:16:41;;;;;;;10.35;6.40;;;;;;;13.88;64.70;101283.81;4973544;28;20062;-73
2021/05/26 10:19:09;;;;;;;10.40;6.15;;;;;;;13.21;67.82;101288.00;4975918;28;20051;-73
2021/05/26 10:21:38;;;;;;;9.23;4.88;;;;;;;12.56;69.21;101295.59;4975148;28;20515;-74
2021/05/26 10:24:06;;;;;;;6.63;4.07;;;;;;;12.11;69.07;101312.22;4973179;28;20153;-72
2021/05/26 10:26:59;;;;;;;5.95;3.72;;;;;;;12.43;67.80;101313.88;4972296;28;20551;-73
2021/05/26 10:29:39;;;;;;;6.70;3.40;;;;;;;12.50;66.88;101315.41;4975445;28;20116;-73
2021/05/26 10:32:08;;;;;;;6.30;3.00;;;;;;;12.52;66.70;101316.22;4971211;28;20070;-72
2021/05/26 10:35:06;;;;;;;4.45;2.70;;;;;;;13.10;64.88;101301.78;4974439;28;20193;-72
2021/05/26 10:37:41;;;;;;;4.10;2.40;;;;;;;12.98;65.28;101315.63;4972692;28;20101;-73
2021/05/26 10:40:45;;;;;;;3.30;2.22;;;;;;;13.07;63.41;101315.28;4971196;28;20201;-73
2021/05/26 10:43:36;;;;;;;4.93;2.13;;;;;;;13.22;61.82;101312.06;4978177;28;20074;-72
2021/05/26 10:46:06;;;;;;;4.40;2.00;;;;;;;13.98;60.09;101318.25;4975531;28;20070;-72
2021/05/26 10:49:07;;;;;;;3.00;1.90;;;;;;;14.30;59.74;101320.59;4974140;28;20144;-72
2021/05/26 10:51:57;;;;;;;3.45;2.00;;;;;;;15.02;56.04;101314.94;4973322;28;20073;-72
2021/05/26 10:54:54;;;;;;;2.58;1.88;;;;;;;14.84;56.34;101321.09;4974268;28;20061;-72
2021/05/26 10:57:22;;;;;;;2.58;1.92;;;;;;;13.76;58.39;101336.09;4935442;28;20134;-72
2021/05/26 11:00:24;;;;;;;7.47;2.50;;;;;;;13.57;60.43;101325.16;4969608;28;20062;-73
2021/05/26 11:03:40;;;;;;;4.05;2.20;;;;;;;13.49;59.57;101335.31;4978207;28;20066;-73
2021/05/26 11:06:37;;;;;;;4.30;2.03;;;;;;;13.83;59.02;101335.78;4975455;28;20066;-73
2021/05/26 11:09:09;;;;;;;3.35;1.80;;;;;;;14.41;57.75;101329.09;4980072;28;20073;-72
2021/05/26 11:11:44;;;;;;;3.47;2.17;;;;;;;13.89;58.67;101336.50;4977826;28;20062;-72
2021/05/26 11:14:34;;;;;;;4.18;2.22;;;;;;;13.61;58.06;101337.53;4982751;28;20062;-72
2021/05/26 11:17:20;;;;;;;3.17;2.10;;;;;;;14.43;55.26;101335.25;4977400;28;20062;-73
2021/05/26 11:19:48;;;;;;;6.60;2.28;;;;;;;15.31;55.46;101331.63;4972841;28;20065;-73
2021/05/26 11:22:18;;;;;;;6.88;2.40;;;;;;;15.24;54.90;101333.72;4984025;28;20062;-74
2021/05/26 11:24:48;;;;;;;2.72;2.00;;;;;;;14.53;56.13;101338.47;5003849;28;20066;-75
2021/05/26 11:27:29;;;;;;;5.78;2.70;;;;;;;13.24;59.16;101344.19;4983816;28;20062;-74
2021/05/26 11:30:00;;;;;;;6.47;2.42;;;;;;;12.95;59.40;101343.38;4977752;28;20070;-75
2021/05/26 11:32:27;;;;;;;6.10;2.83;;;;;;;13.27;60.84;101349.44;4983610;28;20068;-74
2021/05/26 11:34:56;;;;;;;4.05;2.38;;;;;;;13.21;60.88;101346.97;4977916;28;20066;-75